Maersk Jubail — 9HA4558 — position and weather

sailwx.info

Track history (hours):
 
Tides and Currents Weather Stations Pressure Air Temp Water Temp Dewpoint Dewpoint Depression Visibility Wind Speed Wind Dir Waves Ship Positions

Maersk Jubail

Last reported at 2017-Sep-12 09:16 UTC. Time now 2017-Sep-19 13:29 UTC.
Position N 05°04' E 000°36'.

Length 222 m; draft 10.9 m.

Type: Ship (hazmat cat A). MMSI: 248206000.

Date/timePositionNaut miles runAvg speedWind from/ knotsBaromVisibWave heightAir tempDewpointWater temp
2017-Sep-12 09:16N 05°04' E 000°36'719.8
2017-Sep-12 08:56N 05°01' E 000°30'15016.9
2017-Sep-12 00:02N 04°05' W 001°49'316.0
2017-Sep-11 23:49N 04°03' W 001°53'515.9
2017-Sep-11 23:30N 04°02' W 001°58'816.1
2017-Sep-11 22:59N 04°02' W 002°06'815.9
2017-Sep-11 22:29N 04°03' W 002°14'815.9
2017-Sep-11 21:59N 04°03' W 002°22'816.0
2017-Sep-11 21:29N 04°03' W 002°30'815.8
2017-Sep-11 20:59N 04°03' W 002°38'715.4
2017-Sep-11 20:30N 04°02' W 002°45'815.7
2017-Sep-11 19:59N 04°02' W 002°53'  
2017-Sep-08 02:49N 20°39' W 018°00'46218.0
2017-Sep-07 01:08N 27°30' W 014°09'419.5
2017-Sep-07 00:56N 27°33' W 014°06'1319.5
2017-Sep-07 00:17N 27°42' W 013°56'619.5
2017-Sep-07 00:00N 27°46' W 013°51'1019.5
2017-Sep-06 23:29N 27°53' W 013°43'1019.1
2017-Sep-06 22:56N 28°00' W 013°35'6219.1
2017-Sep-06 19:42N 28°52' W 012°57'419.1
2017-Sep-06 19:28N 28°56' W 012°54'1818.9
2017-Sep-06 18:30N 29°11' W 012°43'7018.8
2017-Sep-06 14:47N 30°10' W 011°59'3618.4
2017-Sep-06 12:49N 30°41' W 011°37'42817.7
2017-Sep-05 12:40N 35°58' W 005°53'317.6
2017-Sep-05 12:29N 35°58' W 005°49'918.2
2017-Sep-05 12:00N 35°58' W 005°38'917.2
2017-Sep-05 11:30N 35°60' W 005°28'713.9
2017-Sep-05 11:00N 36°06' W 005°24'3 5.9
2017-Sep-05 10:28N 36°09' W 005°26'0 0.9
2017-Sep-05 10:00N 36°08' W 005°26'12 0.5
2017-Sep-04 08:58N 36°03' W 005°13'510.0
2017-Sep-04 08:31N 36°04' W 005°08'5 9.9
2017-Sep-04 08:00N 36°08' W 005°04'4 7.2
2017-Sep-04 07:28N 36°09' W 004°60'2 1.0
2017-Sep-04 05:16N 36°07' W 005°01'1 2.1
2017-Sep-04 04:52N 36°07' W 005°02'1 1.9
2017-Sep-04 04:16N 36°08' W 005°04'0 1.3
2017-Sep-04 03:55N 36°08' W 005°04'3 6.1
2017-Sep-04 03:28N 36°06' W 005°07'612.1
2017-Sep-04 02:58N 36°04' W 005°14'2 5.3
2017-Sep-04 02:30N 36°03' W 005°16'510.5
2017-Sep-04 02:00N 36°03' W 005°10'510.5
2017-Sep-04 01:30N 36°04' W 005°03'610.2
2017-Sep-04 00:57N 36°04' W 004°56'11 0.5
2017-Sep-03 02:28N 36°00' W 005°09'612.2
2017-Sep-03 02:00N 35°59' W 005°16'612.0
2017-Sep-03 01:30N 35°58' W 005°23'611.6
2017-Sep-03 01:00N 35°57' W 005°30'610.9
2017-Sep-03 00:30N 35°55' W 005°37'710.2
2017-Sep-02 23:51N 35°55' W 005°45'410.5
2017-Sep-02 23:30N 35°54' W 005°49'510.3
2017-Sep-02 23:00N 35°54' W 005°56'2210.0
2017-Sep-02 20:47N 35°55' W 006°23'  
Track history (hours):
 
Tides and Currents Weather Stations Pressure Air Temp Water Temp Dewpoint Dewpoint Depression Visibility Wind Speed Wind Dir Waves Ship Positions

Maersk Jubail

Last reported at 2017-Sep-12 09:16 UTC. Time now 2017-Sep-19 13:29 UTC.
Position N 05°04' E 000°36'.

Length 222 m; draft 10.9 m.

Type: Ship (hazmat cat A). MMSI: 248206000.

Date/timePositionNaut miles runAvg speedWind from/ knotsBaromVisibWave heightAir tempDewpointWater temp
2017-Sep-12 09:16N 05°04' E 000°36'719.8
2017-Sep-12 08:56N 05°01' E 000°30'15016.9
2017-Sep-12 00:02N 04°05' W 001°49'316.0
2017-Sep-11 23:49N 04°03' W 001°53'515.9
2017-Sep-11 23:30N 04°02' W 001°58'816.1
2017-Sep-11 22:59N 04°02' W 002°06'815.9
2017-Sep-11 22:29N 04°03' W 002°14'815.9
2017-Sep-11 21:59N 04°03' W 002°22'816.0
2017-Sep-11 21:29N 04°03' W 002°30'815.8
2017-Sep-11 20:59N 04°03' W 002°38'715.4
2017-Sep-11 20:30N 04°02' W 002°45'815.7
2017-Sep-11 19:59N 04°02' W 002°53'  
2017-Sep-08 02:49N 20°39' W 018°00'46218.0
2017-Sep-07 01:08N 27°30' W 014°09'419.5
2017-Sep-07 00:56N 27°33' W 014°06'1319.5
2017-Sep-07 00:17N 27°42' W 013°56'619.5
2017-Sep-07 00:00N 27°46' W 013°51'1019.5
2017-Sep-06 23:29N 27°53' W 013°43'1019.1
2017-Sep-06 22:56N 28°00' W 013°35'6219.1
2017-Sep-06 19:42N 28°52' W 012°57'419.1
2017-Sep-06 19:28N 28°56' W 012°54'1818.9
2017-Sep-06 18:30N 29°11' W 012°43'7018.8
2017-Sep-06 14:47N 30°10' W 011°59'3618.4
2017-Sep-06 12:49N 30°41' W 011°37'42817.7
2017-Sep-05 12:40N 35°58' W 005°53'317.6
2017-Sep-05 12:29N 35°58' W 005°49'918.2
2017-Sep-05 12:00N 35°58' W 005°38'917.2
2017-Sep-05 11:30N 35°60' W 005°28'713.9
2017-Sep-05 11:00N 36°06' W 005°24'3 5.9
2017-Sep-05 10:28N 36°09' W 005°26'0 0.9
2017-Sep-05 10:00N 36°08' W 005°26'12 0.5
2017-Sep-04 08:58N 36°03' W 005°13'510.0
2017-Sep-04 08:31N 36°04' W 005°08'5 9.9
2017-Sep-04 08:00N 36°08' W 005°04'4 7.2
2017-Sep-04 07:28N 36°09' W 004°60'2 1.0
2017-Sep-04 05:16N 36°07' W 005°01'1 2.1
2017-Sep-04 04:52N 36°07' W 005°02'1 1.9
2017-Sep-04 04:16N 36°08' W 005°04'0 1.3
2017-Sep-04 03:55N 36°08' W 005°04'3 6.1
2017-Sep-04 03:28N 36°06' W 005°07'612.1
2017-Sep-04 02:58N 36°04' W 005°14'2 5.3
2017-Sep-04 02:30N 36°03' W 005°16'510.5
2017-Sep-04 02:00N 36°03' W 005°10'510.5
2017-Sep-04 01:30N 36°04' W 005°03'610.2
2017-Sep-04 00:57N 36°04' W 004°56'11 0.5
2017-Sep-03 02:28N 36°00' W 005°09'612.2
2017-Sep-03 02:00N 35°59' W 005°16'612.0
2017-Sep-03 01:30N 35°58' W 005°23'611.6
2017-Sep-03 01:00N 35°57' W 005°30'610.9
2017-Sep-03 00:30N 35°55' W 005°37'710.2
2017-Sep-02 23:51N 35°55' W 005°45'410.5
2017-Sep-02 23:30N 35°54' W 005°49'510.3
2017-Sep-02 23:00N 35°54' W 005°56'2210.0
2017-Sep-02 20:47N 35°55' W 006°23'  

Dump ship's entire track history